CheckWX is a tool to help pilots better visualize weather data.  It is not intended as a substitute for an official pre-flight weather briefing.

15:04:34 UTC

KLHX METAR
La Junta Municipal Airport
La Junta, Colorado, USA
Current

12 mins ago

KLHX 231453Z AUTO 02007KT 10SM OVC040 08/04 A3010 RMK AO2 SLP167 60002 T00830039 53002 TSNO
Observed
May-23 @ 14:53 UTC
Wind
  • 020° at 7 KTS
Visibility
10 SM
Flight Rules
VFR
Cloud Levels
  • Overcast at 4,000' AGL
Temperature
C / 46°F
Dewpoint
C / 39°F
Humidity
76%
Altimeter
30.1" Hg
Pressure
1019.32 hPa
Previous

1 hour ago

KLHX 231353Z AUTO 01008KT 10SM OVC043 08/04 A3008 RMK AO2 RAE1255 SLP156 P0000 T00830044 TSNO
Observed
May-23 @ 13:53 UTC
Wind
  • 010° at 8 KTS
Visibility
10 SM
Flight Rules
VFR
Cloud Levels
  • Overcast at 4,300' AGL
Temperature
C / 46°F
Dewpoint
C / 39°F
Humidity
76%
Altimeter
30.08" Hg
Pressure
1018.62 hPa
Current Rain
0.01"
Previous

2 hours ago

KLHX 231253Z AUTO 02007KT 10SM -RA OVC041 08/04 A3010 RMK AO2 RAB24 SLP160 P0002 T00780039 TSNO
Observed
May-23 @ 12:53 UTC
Wind
  • 020° at 7 KTS
Visibility
10 SM
Flight Rules
VFR
Conditions
Light Rain
Cloud Levels
  • Overcast at 4,100' AGL
Temperature
C / 46°F
Dewpoint
C / 39°F
Humidity
76%
Altimeter
30.1" Hg
Pressure
1019.32 hPa
Current Rain
0.02"